Huvudsida
METAR-TAF:

METAR-TAF

Flygplatser :

Sandakan, Malaysia

latitud: 05-54N, longitud: 118-04E, höjd: 12 m

Aktuellt väderrapport

Denna rapport gjordes för 13 minuter sedan, klockan 00:00 UTC
Vind 3 kt från syd/sydväst, varierande mellan sydost och väst/sydväst
Temperatur 29°C
Fuktighet 79%
Tryck 1010 hPa
Sikt 10 km eller mer
Få moln på en höjd av 1600 ft
Brutna moln på en höjd av 30000 ft

METAR: WBKS 250000Z 20003KT 140V250 9999 FEW016 BKN300 29/25 Q1010

Tid: 08:13 (00:13 UTC)

Väderprognos

Denna rapport gjordes för 1 timme och 13 minuter sedan, klockan 23:00 UTC
Prognos gäller från 25 kl. 00 UTC till 26 kl. 00 UTC
Vind 5 kt från nord/nordost
Sikt 10 km eller mer
Få moln på en höjd av 1500 ft
Temporärt
från 25 kl. 00 UTC till 25 kl. 04 UTC
Sikt: 3000 m
Få moln på en höjd av 1400 ft
Få moln på en höjd av 1600 ft, Cumulonimbus.
Spridda moln på en höjd av 4000 ft
regn

TAF: WBKS 242300Z 2500/2600 03005KT 9999 FEW015 TEMPO 2500/2504 3000 RA FEW014 FEW016CB SCT040

Aktuella väderrapporter och prognoser från 4000 flygplatser (METAR- och TAF-rapporter).

De tillgängliga stationerna syns som gula och röda prickar på kartan.

För musen över prickarna för att se namnen på stationerna.

Klicka sedan för att få väderrapporter och prognoser.

För att ändra kartan: Klicka på de gröna knapparna med ett svart kors på för att zooma in; den gröna knappen med ett streck på för att zooma ut; eller på de gröna pilarna för angränsande kartor.


METAR-TAF: